^^
Your Local Weather - Clay, NY Station Historical Data
Daily Summary for December 8, 2017 Units:  English    Metric   Both
« Previous Day
Next Day »
Daily Weekly Monthly Yearly Custom
  High: Low: Average:
Temperature: 33.0 °F 26.8 °F 29.4 °F
Dew Point: 23.6 °F 14.3 °F 18.3 °F
Humidity: 80% 54% 63%
Wind Speed: 6.0mph 0.0mph 2.4mph
Wind Gust: 10.0mph - -
Wind- - SW
Pressure: 29.99 in 29.89 in -
Precipitation: 0.00 in    
Historical Graphs
 
 
Tabular Data for December 8, 2017
Time Temperature Dew Point Pressure Wind Wind Speed Wind Gust Humidity Rainfall Rate (Hourly) solar
00:00 28.2 °F 20.0 °F 29.93 in West 3.0 mph 6.0 mph 71% 0.00 in 0 W/m2
00:12 28.1 °F 19.6 °F 29.93 in SW 3.0 mph 3.0 mph 70% 0.00 in 0 W/m2
00:18 28.1 °F 19.6 °F 29.93 in West 3.0 mph 5.0 mph 70% 0.00 in 0 W/m2
00:26 28.2 °F 19.3 °F 29.93 in SW 4.0 mph 8.0 mph 69% 0.00 in 0 W/m2
00:32 28.2 °F 19.3 °F 29.93 in SSW 4.0 mph 4.0 mph 69% 0.00 in 0 W/m2
00:38 28.2 °F 19.3 °F 29.94 in SW 4.0 mph 8.0 mph 69% 0.00 in 0 W/m2
00:44 28.2 °F 19.0 °F 29.94 in WSW 5.0 mph 9.0 mph 68% 0.00 in 0 W/m2
00:50 28.1 °F 18.9 °F 29.93 in West 4.0 mph 4.0 mph 68% 0.00 in 0 W/m2
00:56 28.0 °F 18.8 °F 29.93 in West 3.0 mph 4.0 mph 68% 0.00 in 0 W/m2
01:02 27.9 °F 18.7 °F 29.93 in SW 3.0 mph 7.0 mph 68% 0.00 in 0 W/m2
01:08 27.8 °F 18.6 °F 29.93 in SW 4.0 mph 7.0 mph 68% 0.00 in 0 W/m2
01:14 27.8 °F 18.6 °F 29.94 in WSW 3.0 mph 6.0 mph 68% 0.00 in 0 W/m2
01:20 27.8 °F 18.6 °F 29.94 in West 3.0 mph 3.0 mph 68% 0.00 in 0 W/m2
01:32 27.6 °F 18.4 °F 29.95 in WSW 4.0 mph 4.0 mph 68% 0.00 in 0 W/m2
01:38 27.6 °F 18.1 °F 29.95 in SW 3.0 mph 5.0 mph 67% 0.00 in 0 W/m2
01:44 27.6 °F 18.1 °F 29.95 in WSW 3.0 mph 4.0 mph 67% 0.00 in 0 W/m2
01:50 27.5 °F 18.0 °F 29.95 in WSW 4.0 mph 4.0 mph 67% 0.00 in 0 W/m2
01:56 27.5 °F 18.0 °F 29.95 in WSW 3.0 mph 4.0 mph 67% 0.00 in 0 W/m2
02:02 27.4 °F 17.9 °F 29.95 in SW 3.0 mph 3.0 mph 67% 0.00 in 0 W/m2
02:06 27.3 °F 17.8 °F 29.95 in SW 3.0 mph 5.0 mph 67% 0.00 in 0 W/m2
02:12 27.4 °F 17.5 °F 29.95 in West 3.0 mph 6.0 mph 66% 0.00 in 0 W/m2
02:18 27.3 °F 17.4 °F 29.96 in SW 3.0 mph 6.0 mph 66% 0.00 in 0 W/m2
02:24 27.3 °F 17.4 °F 29.95 in WSW 2.0 mph 6.0 mph 66% 0.00 in 0 W/m2
02:30 27.2 °F 17.0 °F 29.95 in WSW 2.0 mph 2.0 mph 65% 0.00 in 0 W/m2
02:36 27.1 °F 17.2 °F 29.96 in West 2.0 mph 3.0 mph 66% 0.00 in 0 W/m2
02:48 27.1 °F 16.9 °F 29.95 in WSW 2.0 mph 5.0 mph 65% 0.00 in 0 W/m2
02:54 27.1 °F 16.5 °F 29.95 in WSW 2.0 mph 4.0 mph 64% 0.00 in 0 W/m2
03:00 27.1 °F 16.5 °F 29.96 in SW 3.0 mph 3.0 mph 64% 0.00 in 0 W/m2
03:12 27.0 °F 16.4 °F 29.96 in WSW 2.0 mph 2.0 mph 64% 0.00 in 0 W/m2
03:18 26.9 °F 16.7 °F 29.96 in WSW 2.0 mph 2.0 mph 65% 0.00 in 0 W/m2
03:24 26.9 °F 16.7 °F 29.95 in WSW 1.0 mph 2.0 mph 65% 0.00 in 0 W/m2
03:30 27.0 °F 16.8 °F 29.96 in WSW 1.0 mph 1.0 mph 65% 0.00 in 0 W/m2
03:36 27.2 °F 17.3 °F 29.96 in SW 1.0 mph 2.0 mph 66% 0.00 in 0 W/m2
03:42 27.4 °F 17.5 °F 29.96 in SW 2.0 mph 4.0 mph 66% 0.00 in 0 W/m2
03:58 28.1 °F 18.9 °F 29.96 in SW 1.0 mph 4.0 mph 68% 0.00 in 0 W/m2
04:04 28.3 °F 19.4 °F 29.96 in SW 2.0 mph 3.0 mph 69% 0.00 in 0 W/m2
04:10 28.5 °F 19.6 °F 29.96 in SW 1.0 mph 2.0 mph 69% 0.00 in 0 W/m2
04:16 28.7 °F 20.1 °F 29.97 in WSW 1.0 mph 3.0 mph 70% 0.00 in 0 W/m2
04:22 29.0 °F 20.4 °F 29.97 in SW 3.0 mph 3.0 mph 70% 0.00 in 0 W/m2
04:28 29.2 °F 20.6 °F 29.97 in WSW 3.0 mph 4.0 mph 70% 0.00 in 0 W/m2
04:34 29.4 °F 20.8 °F 29.97 in SSW 4.0 mph 5.0 mph 70% 0.00 in 0 W/m2
04:40 29.4 °F 20.8 °F 29.96 in SW 3.0 mph 3.0 mph 70% 0.00 in 0 W/m2
04:46 29.4 °F 20.8 °F 29.96 in SSW 2.0 mph 4.0 mph 70% 0.00 in 0 W/m2
04:52 29.4 °F 21.2 °F 29.96 in SW 2.0 mph 3.0 mph 71% 0.00 in 0 W/m2
04:58 29.5 °F 21.3 °F 29.96 in SW 2.0 mph 4.0 mph 71% 0.00 in 0 W/m2
05:04 29.5 °F 21.3 °F 29.96 in SW 2.0 mph 2.0 mph 71% 0.00 in 0 W/m2
05:10 29.5 °F 21.3 °F 29.96 in WSW 2.0 mph 2.0 mph 71% 0.00 in 0 W/m2
05:22 29.5 °F 21.3 °F 29.96 in WSW 2.0 mph 3.0 mph 71% 0.00 in 0 W/m2
05:28 29.4 °F 21.2 °F 29.96 in WNW 2.0 mph 4.0 mph 71% 0.00 in 0 W/m2
05:34 29.4 °F 21.5 °F 29.96 in WSW 3.0 mph 3.0 mph 72% 0.00 in 0 W/m2
05:40 29.4 °F 21.5 °F 29.96 in SW 2.0 mph 2.0 mph 72% 0.00 in 0 W/m2
05:46 29.4 °F 21.5 °F 29.96 in WSW 1.0 mph 4.0 mph 72% 0.00 in 0 W/m2
05:52 29.4 °F 21.8 °F 29.97 in WSW 1.0 mph 1.0 mph 73% 0.00 in 0 W/m2
06:04 29.2 °F 21.9 °F 29.97 in WSW 1.0 mph 3.0 mph 74% 0.00 in 0 W/m2
06:10 29.2 °F 22.3 °F 29.97 in WSW 1.0 mph 1.0 mph 75% 0.00 in 0 W/m2
06:16 29.2 °F 22.3 °F 29.96 in WSW 1.0 mph 1.0 mph 75% 0.00 in 0 W/m2
06:22 29.1 °F 22.2 °F 29.96 in WSW 1.0 mph 1.0 mph 75% 0.00 in 0 W/m2
06:28 29.2 °F 22.3 °F 29.96 in WSW 1.0 mph 1.0 mph 75% 0.00 in 0 W/m2
06:34 29.1 °F 22.5 °F 29.96 in WSW 1.0 mph 2.0 mph 76% 0.00 in 0 W/m2
06:40 29.1 °F 22.5 °F 29.96 in WSW 1.0 mph 2.0 mph 76% 0.00 in 0 W/m2
06:46 29.1 °F 22.5 °F 29.96 in WSW 1.0 mph 2.0 mph 76% 0.00 in 0 W/m2
06:52 29.1 °F 22.8 °F 29.96 in Calm   1.0 mph 77% 0.00 in 0 W/m2
06:58 29.1 °F 22.8 °F 29.96 in Calm   1.0 mph 77% 0.00 in 0 W/m2
07:04 29.1 °F 22.8 °F 29.96 in Calm     77% 0.00 in 0 W/m2
07:10 29.0 °F 22.7 °F 29.96 in Calm     77% 0.00 in 0 W/m2
07:16 29.0 °F 22.7 °F 29.96 in Calm     77% 0.00 in 0 W/m2
07:22 29.0 °F 23.0 °F 29.96 in Calm     78% 0.00 in 0 W/m2
07:28 29.0 °F 23.0 °F 29.96 in Calm     78% 0.00 in 0 W/m2
07:40 29.0 °F 23.3 °F 29.96 in Calm     79% 0.00 in 0 W/m2
07:46 29.0 °F 23.3 °F 29.97 in Calm     79% 0.00 in 0 W/m2
07:52 29.0 °F 23.6 °F 29.97 in Calm     80% 0.00 in 0 W/m2
07:58 29.0 °F 23.6 °F 29.97 in Calm     80% 0.00 in 0 W/m2
08:04 29.0 °F 23.6 °F 29.97 in Calm     80% 0.00 in 0 W/m2
08:10 29.0 °F 23.6 °F 29.97 in Calm   1.0 mph 80% 0.00 in 0 W/m2
08:28 29.0 °F 22.7 °F 29.98 in WSW 2.0 mph 5.0 mph 77% 0.00 in 14 W/m2
08:34 29.1 °F 22.5 °F 29.98 in West 2.0 mph 3.0 mph 76% 0.00 in 7 W/m2
08:40 29.3 °F 21.7 °F 29.98 in West 3.0 mph 3.0 mph 73% 0.00 in 23 W/m2
08:46 29.5 °F 21.6 °F 29.98 in West 4.0 mph 8.0 mph 72% 0.00 in 33 W/m2
08:52 29.5 °F 21.3 °F 29.98 in WSW 4.0 mph 5.0 mph 71% 0.00 in 26 W/m2
08:58 29.6 °F 21.3 °F 29.98 in West 3.0 mph 5.0 mph 71% 0.00 in 54 W/m2
09:04 29.6 °F 21.3 °F 29.98 in WSW 2.0 mph 7.0 mph 71% 0.00 in 63 W/m2
09:10 29.6 °F 21.3 °F 29.98 in West 2.0 mph 2.0 mph 71% 0.00 in 77 W/m2
09:16 29.5 °F 21.3 °F 29.98 in West 3.0 mph 3.0 mph 71% 0.00 in 100 W/m2
09:22 29.7 °F 21.8 °F 29.99 in SW 3.0 mph 4.0 mph 72% 0.00 in 79 W/m2
09:28 29.7 °F 22.1 °F 29.99 in SW 3.0 mph 4.0 mph 73% 0.00 in 118 W/m2
09:34 29.6 °F 22.0 °F 29.99 in SSW 3.0 mph 7.0 mph 73% 0.00 in 155 W/m2
09:40 29.9 °F 22.0 °F 29.99 in SW 4.0 mph 4.0 mph 72% 0.00 in 223 W/m2
09:46 30.7 °F 22.1 °F 29.99 in SW 3.0 mph 5.0 mph 70% 0.00 in 179 W/m2
09:58 30.4 °F 21.4 °F 29.99 in SW 2.0 mph 3.0 mph 69% 0.00 in 139 W/m2
10:04 30.7 °F 20.7 °F 29.98 in SW 2.0 mph 6.0 mph 66% 0.00 in 137 W/m2
10:10 30.7 °F 20.3 °F 29.98 in SW 3.0 mph 5.0 mph 65% 0.00 in 137 W/m2
10:16 31.2 °F 20.4 °F 29.98 in SW 3.0 mph 7.0 mph 64% 0.00 in 163 W/m2
10:28 31.1 °F 20.0 °F 29.98 in SW 3.0 mph 4.0 mph 63% 0.00 in 72 W/m2
10:34 30.9 °F 19.4 °F 29.98 in SW 3.0 mph 5.0 mph 62% 0.00 in 91 W/m2
10:42 30.9 °F 19.8 °F 29.98 in SSW 3.0 mph 5.0 mph 63% 0.00 in 114 W/m2
10:48 30.9 °F 19.0 °F 29.98 in SSW 3.0 mph 5.0 mph 61% 0.00 in 98 W/m2
10:54 30.7 °F 18.8 °F 29.98 in South 4.0 mph 9.0 mph 61% 0.00 in 93 W/m2
11:00 30.7 °F 18.8 °F 29.98 in SSW 4.0 mph 6.0 mph 61% 0.00 in 100 W/m2
11:06 30.7 °F 18.8 °F 29.98 in South 4.0 mph 6.0 mph 61% 0.00 in 130 W/m2
11:12 30.7 °F 18.8 °F 29.97 in SW 4.0 mph 4.0 mph 61% 0.00 in 104 W/m2
11:18 30.8 °F 18.9 °F 29.98 in SW 3.0 mph 5.0 mph 61% 0.00 in 91 W/m2
11:24 30.7 °F 18.4 °F 29.97 in SW 4.0 mph 4.0 mph 60% 0.00 in 98 W/m2
11:30 30.7 °F 18.8 °F 29.98 in SSW 4.0 mph 4.0 mph 61% 0.00 in 111 W/m2
11:42 30.9 °F 18.6 °F 29.97 in SW 4.0 mph 4.0 mph 60% 0.00 in 127 W/m2
11:48 30.9 °F 18.6 °F 29.97 in SW 4.0 mph 6.0 mph 60% 0.00 in 97 W/m2
11:54 31.0 °F 18.7 °F 29.97 in SW 4.0 mph 9.0 mph 60% 0.00 in 97 W/m2
12:00 31.0 °F 18.7 °F 29.97 in South 4.0 mph 4.0 mph 60% 0.00 in 72 W/m2
12:06 31.1 °F 18.8 °F 29.97 in SSW 4.0 mph 4.0 mph 60% 0.00 in 86 W/m2
12:12 30.9 °F 18.2 °F 29.96 in SW 5.0 mph 5.0 mph 59% 0.00 in 86 W/m2
12:18 30.8 °F 18.1 °F 29.95 in South 5.0 mph 5.0 mph 59% 0.00 in 95 W/m2
12:24 30.9 °F 18.2 °F 29.95 in South 5.0 mph 7.0 mph 59% 0.00 in 102 W/m2
12:30 31.0 °F 18.7 °F 29.95 in SW 4.0 mph 4.0 mph 60% 0.00 in 105 W/m2
12:36 31.2 °F 18.5 °F 29.95 in West 3.0 mph 4.0 mph 59% 0.00 in 98 W/m2
12:42 31.2 °F 18.9 °F 29.95 in SW 3.0 mph 6.0 mph 60% 0.00 in 127 W/m2
12:48 31.3 °F 18.6 °F 29.94 in SW 3.0 mph 7.0 mph 59% 0.00 in 141 W/m2
12:54 31.3 °F 18.6 °F 29.95 in SW 4.0 mph 6.0 mph 59% 0.00 in 132 W/m2
13:00 31.4 °F 18.7 °F 29.94 in SW 4.0 mph 4.0 mph 59% 0.00 in 104 W/m2
13:06 31.4 °F 18.7 °F 29.94 in SSW 3.0 mph 10.0 mph 59% 0.00 in 134 W/m2
13:12 31.4 °F 18.3 °F 29.94 in SSW 4.0 mph 6.0 mph 58% 0.00 in 158 W/m2
13:18 31.5 °F 18.8 °F 29.93 in SW 4.0 mph 6.0 mph 59% 0.00 in 139 W/m2
13:24 31.7 °F 18.6 °F 29.93 in SW 3.0 mph 4.0 mph 58% 0.00 in 118 W/m2
13:30 31.7 °F 18.6 °F 29.94 in South 3.0 mph 3.0 mph 58% 0.00 in 125 W/m2
13:36 31.9 °F 19.2 °F 29.93 in WSW 3.0 mph 4.0 mph 59% 0.00 in 139 W/m2
13:42 32.0 °F 18.9 °F 29.92 in SSW 3.0 mph 5.0 mph 58% 0.00 in 186 W/m2
13:48 33.0 °F 19.4 °F 29.92 in SW 4.0 mph 5.0 mph 57% 0.00 in 403 W/m2
13:54 32.9 °F 18.9 °F 29.91 in WSW 4.0 mph 5.0 mph 56% 0.00 in 151 W/m2
14:00 32.7 °F 18.7 °F 29.90 in SSW 3.0 mph 3.0 mph 56% 0.00 in 153 W/m2
14:06 32.6 °F 18.2 °F 29.90 in SW 4.0 mph 5.0 mph 55% 0.00 in 218 W/m2
14:12 33.0 °F 19.0 °F 29.91 in SSW 4.0 mph 4.0 mph 56% 0.00 in 278 W/m2
14:18 32.7 °F 17.9 °F 29.90 in South 4.0 mph 6.0 mph 54% 0.00 in 111 W/m2
14:24 32.2 °F 17.8 °F 29.91 in SSW 6.0 mph 6.0 mph 55% 0.00 in 105 W/m2
14:30 32.1 °F 17.7 °F 29.92 in SW 5.0 mph 5.0 mph 55% 0.00 in 98 W/m2
14:36 32.0 °F 18.1 °F 29.92 in SW 5.0 mph 9.0 mph 56% 0.00 in 95 W/m2
14:42 32.1 °F 18.2 °F 29.91 in SW 4.0 mph 6.0 mph 56% 0.00 in 105 W/m2
14:48 32.1 °F 17.7 °F 29.92 in South 4.0 mph 6.0 mph 55% 0.00 in 127 W/m2
14:54 32.1 °F 18.2 °F 29.92 in South 5.0 mph 5.0 mph 56% 0.00 in 118 W/m2
15:00 32.2 °F 17.8 °F 29.91 in SW 5.0 mph 5.0 mph 55% 0.00 in 93 W/m2
15:06 32.2 °F 18.2 °F 29.92 in SSW 5.0 mph 7.0 mph 56% 0.00 in 84 W/m2
15:12 32.1 °F 18.2 °F 29.92 in South 5.0 mph 5.0 mph 56% 0.00 in 90 W/m2
15:18 32.1 °F 18.2 °F 29.91 in SW 4.0 mph 6.0 mph 56% 0.00 in 77 W/m2
15:24 32.0 °F 17.6 °F 29.91 in South 5.0 mph 6.0 mph 55% 0.00 in 70 W/m2
15:30 32.0 °F 18.1 °F 29.91 in SSW 5.0 mph 5.0 mph 56% 0.00 in 84 W/m2
15:36 31.9 °F 17.5 °F 29.91 in SSW 5.0 mph 7.0 mph 55% 0.00 in 62 W/m2
15:42 31.9 °F 18.0 °F 29.91 in South 5.0 mph 7.0 mph 56% 0.00 in 60 W/m2
15:48 31.8 °F 17.5 °F 29.90 in SSE 5.0 mph 8.0 mph 55% 0.00 in 30 W/m2
15:54 31.6 °F 17.7 °F 29.91 in South 4.0 mph 5.0 mph 56% 0.00 in 23 W/m2
16:00 31.4 °F 17.5 °F 29.90 in SSW 3.0 mph 3.0 mph 56% 0.00 in 25 W/m2
16:06 31.2 °F 17.3 °F 29.90 in SSW 2.0 mph 3.0 mph 56% 0.00 in 18 W/m2
16:12 31.0 °F 17.5 °F 29.89 in SSE 2.0 mph 5.0 mph 57% 0.00 in 11 W/m2
16:18 30.9 °F 17.4 °F 29.91 in SSW 3.0 mph 5.0 mph 57% 0.00 in 11 W/m2
16:24 30.9 °F 17.4 °F 29.90 in SW 3.0 mph 3.0 mph 57% 0.00 in 5 W/m2
16:30 30.8 °F 17.3 °F 29.90 in SSW 2.0 mph 2.0 mph 57% 0.00 in 0 W/m2
16:36 30.5 °F 17.1 °F 29.89 in SSW 2.0 mph 3.0 mph 57% 0.00 in 0 W/m2
16:42 30.4 °F 17.0 °F 29.90 in SSW 2.0 mph 2.0 mph 57% 0.00 in 0 W/m2
16:48 30.4 °F 16.6 °F 29.90 in SSW 1.0 mph 3.0 mph 56% 0.00 in 0 W/m2
16:54 30.3 °F 16.5 °F 29.92 in SSW 1.0 mph 3.0 mph 56% 0.00 in 0 W/m2
17:00 30.3 °F 16.9 °F 29.92 in SSW 1.0 mph 4.0 mph 57% 0.00 in 0 W/m2
17:06 30.0 °F 16.6 °F 29.92 in SSW 1.0 mph 4.0 mph 57% 0.00 in 0 W/m2
17:12 29.8 °F 16.8 °F 29.92 in Calm   1.0 mph 58% 0.00 in 0 W/m2
17:18 29.7 °F 16.7 °F 29.92 in South 1.0 mph 2.0 mph 58% 0.00 in 0 W/m2
17:24 29.8 °F 16.8 °F 29.92 in SW 2.0 mph 4.0 mph 58% 0.00 in 0 W/m2
17:30 29.8 °F 16.8 °F 29.92 in South 1.0 mph 1.0 mph 58% 0.00 in 0 W/m2
17:36 29.7 °F 16.3 °F 29.91 in South 1.0 mph 3.0 mph 57% 0.00 in 0 W/m2
17:42 29.6 °F 16.6 °F 29.90 in South 2.0 mph 2.0 mph 58% 0.00 in 0 W/m2
17:48 29.1 °F 16.5 °F 29.90 in South 1.0 mph 2.0 mph 59% 0.00 in 0 W/m2
17:54 28.9 °F 16.4 °F 29.90 in Calm   3.0 mph 59% 0.00 in 0 W/m2
18:00 29.0 °F 16.4 °F 29.89 in SSW 1.0 mph 1.0 mph 59% 0.00 in 0 W/m2
18:06 28.7 °F 16.6 °F 29.90 in SSW 1.0 mph 1.0 mph 60% 0.00 in 0 W/m2
18:12 28.5 °F 16.4 °F 29.91 in SSW 1.0 mph 2.0 mph 60% 0.00 in 0 W/m2
18:18 28.4 °F 16.3 °F 29.92 in SSW 1.0 mph 2.0 mph 60% 0.00 in 0 W/m2
18:24 28.5 °F 16.0 °F 29.92 in SSW 1.0 mph 1.0 mph 59% 0.00 in 0 W/m2
18:30 28.6 °F 16.1 °F 29.93 in SSW 1.0 mph 1.0 mph 59% 0.00 in 0 W/m2
18:36 28.7 °F 16.2 °F 29.93 in SSW 2.0 mph 2.0 mph 59% 0.00 in 0 W/m2
18:42 28.7 °F 16.2 °F 29.93 in SSW 1.0 mph 2.0 mph 59% 0.00 in 0 W/m2
18:48 28.7 °F 16.2 °F 29.92 in SSW 2.0 mph 4.0 mph 59% 0.00 in 0 W/m2
18:54 28.9 °F 16.4 °F 29.92 in SSW 2.0 mph 3.0 mph 59% 0.00 in 0 W/m2
19:00 28.8 °F 16.3 °F 29.93 in SSW 1.0 mph 1.0 mph 59% 0.00 in 0 W/m2
19:06 28.7 °F 16.6 °F 29.93 in Calm   1.0 mph 60% 0.00 in 0 W/m2
19:12 28.6 °F 16.5 °F 29.93 in Calm   2.0 mph 60% 0.00 in 0 W/m2
19:24 28.5 °F 16.4 °F 29.92 in South 1.0 mph 1.0 mph 60% 0.00 in 0 W/m2
19:30 28.5 °F 16.4 °F 29.93 in South 1.0 mph 3.0 mph 60% 0.00 in 0 W/m2
19:36 28.4 °F 15.9 °F 29.92 in SSW 2.0 mph 3.0 mph 59% 0.00 in 0 W/m2
19:38 28.4 °F 15.9 °F 29.92 in SSW 1.0 mph 3.0 mph 59% 0.00 in 0 W/m2
19:44 28.4 °F 15.9 °F 29.92 in SSW 1.0 mph 3.0 mph 59% 0.00 in 0 W/m2
19:50 28.3 °F 15.4 °F 29.92 in SSW 1.0 mph 1.0 mph 58% 0.00 in 0 W/m2
19:56 28.4 °F 15.5 °F 29.92 in SSW 2.0 mph 4.0 mph 58% 0.00 in 0 W/m2
20:02 28.4 °F 15.1 °F 29.92 in SSW 2.0 mph 3.0 mph 57% 0.00 in 0 W/m2
20:08 28.5 °F 15.2 °F 29.91 in South 2.0 mph 3.0 mph 57% 0.00 in 0 W/m2
20:20 28.5 °F 14.8 °F 29.92 in SW 3.0 mph 3.0 mph 56% 0.00 in 0 W/m2
20:26 28.5 °F 14.8 °F 29.92 in SSW 3.0 mph 4.0 mph 56% 0.00 in 0 W/m2
20:38 28.6 °F 14.5 °F 29.92 in SW 3.0 mph 6.0 mph 55% 0.00 in 0 W/m2
20:44 28.6 °F 14.5 °F 29.90 in SSW 3.0 mph 3.0 mph 55% 0.00 in 0 W/m2
20:48 28.5 °F 14.4 °F 29.92 in SSW 2.0 mph 3.0 mph 55% 0.00 in 0 W/m2
20:54 28.5 °F 14.4 °F 29.91 in South 3.0 mph 5.0 mph 55% 0.00 in 0 W/m2
21:00 28.5 °F 14.4 °F 29.92 in SW 3.0 mph 5.0 mph 55% 0.00 in 0 W/m2
21:06 28.5 °F 14.4 °F 29.91 in WSW 2.0 mph 5.0 mph 55% 0.00 in 0 W/m2
21:12 28.4 °F 14.3 °F 29.92 in WSW 1.0 mph 2.0 mph 55% 0.00 in 0 W/m2
21:18 28.3 °F 14.6 °F 29.92 in WSW 1.0 mph 2.0 mph 56% 0.00 in 0 W/m2
21:24 28.3 °F 14.6 °F 29.92 in South 1.0 mph 3.0 mph 56% 0.00 in 0 W/m2
21:30 28.3 °F 14.6 °F 29.92 in SW 1.0 mph 3.0 mph 56% 0.00 in 0 W/m2
21:36 28.5 °F 14.8 °F 29.91 in SSW 2.0 mph 6.0 mph 56% 0.00 in 0 W/m2
21:42 28.6 °F 14.5 °F 29.92 in West 3.0 mph 4.0 mph 55% 0.00 in 0 W/m2
21:48 28.6 °F 14.5 °F 29.92 in SSW 3.0 mph 4.0 mph 55% 0.00 in 0 W/m2
21:54 28.7 °F 15.0 °F 29.92 in SW 3.0 mph 4.0 mph 56% 0.00 in 0 W/m2
22:00 28.8 °F 15.1 °F 29.92 in WSW 2.0 mph 7.0 mph 56% 0.00 in 0 W/m2
22:18 28.8 °F 15.1 °F 29.92 in SW 2.0 mph 3.0 mph 56% 0.00 in 0 W/m2
22:30 28.7 °F 14.6 °F 29.91 in SW 2.0 mph 3.0 mph 55% 0.00 in 0 W/m2
22:36 28.5 °F 14.8 °F 29.91 in SW 1.0 mph 3.0 mph 56% 0.00 in 0 W/m2
22:42 28.5 °F 14.8 °F 29.91 in SW 2.0 mph 3.0 mph 56% 0.00 in 0 W/m2
22:48 28.4 °F 14.7 °F 29.91 in SSW 1.0 mph 3.0 mph 56% 0.00 in 0 W/m2
22:54 28.4 °F 14.7 °F 29.90 in SW 1.0 mph 2.0 mph 56% 0.00 in 0 W/m2
23:00 28.3 °F 14.6 °F 29.90 in WSW 1.0 mph 1.0 mph 56% 0.00 in 0 W/m2
23:06 28.2 °F 14.9 °F 29.90 in SW 1.0 mph 3.0 mph 57% 0.00 in 0 W/m2
23:12 28.1 °F 14.8 °F 29.90 in WSW 1.0 mph 3.0 mph 57% 0.00 in 0 W/m2
23:16 28.1 °F 14.8 °F 29.90 in SW 1.0 mph 4.0 mph 57% 0.00 in 0 W/m2
23:22 28.0 °F 14.7 °F 29.90 in SW 1.0 mph 2.0 mph 57% 0.00 in 0 W/m2
23:28 27.8 °F 14.5 °F 29.91 in SW 1.0 mph 2.0 mph 57% 0.00 in 0 W/m2
23:34 27.6 °F 14.7 °F 29.92 in SW 1.0 mph 2.0 mph 58% 0.00 in 0 W/m2
23:40 27.4 °F 14.5 °F 29.92 in Calm     58% 0.00 in 0 W/m2
23:46 27.1 °F 14.7 °F 29.92 in Calm   2.0 mph 59% 0.00 in 0 W/m2
23:52 27.0 °F 14.6 °F 29.92 in Calm     59% 0.00 in 0 W/m2
23:58 26.8 °F 14.4 °F 29.92 in Calm     59% 0.00 in 0 W/m2
Country Meadow, Clay, NY, USA
Compliments of Weather Underground - 2 mb